Time;durP1;ratioP1;P1;durP2;ratioP2;P2;SDS_P1;SDS_P2;PMS_P1;PMS_P2;Temp;Humidity;BMP_temperature;BMP_pressure;BME280_temperature;BME280_humidity;BME280_pressure;Samples;Min_cycle;Max_cycle;Signal;HPM_P1;HPM_P2
2024/01/15 00:01:09;;;;;;;27.77;26.37;;;0.80;99.90;;;;;;5009536;28;20465;-70
2024/01/15 00:03:36;;;;;;;26.40;25.10;;;0.80;99.90;;;;;;5002510;28;20566;-70
2024/01/15 00:06:05;;;;;;;27.50;26.20;;;0.80;99.90;;;;;;5006912;28;20476;-70
2024/01/15 00:08:32;;;;;;;26.03;24.83;;;0.80;99.90;;;;;;5010099;28;20470;-70
2024/01/15 00:10:58;;;;;;;26.90;25.70;;;0.80;99.90;;;;;;5011078;28;20465;-70
2024/01/15 00:13:25;;;;;;;26.03;24.83;;;0.70;99.90;;;;;;5007776;28;22629;-70
2024/01/15 00:15:52;;;;;;;25.60;24.50;;;0.80;99.90;;;;;;5005255;28;20643;-69
2024/01/15 00:18:19;;;;;;;26.13;24.93;;;0.80;99.90;;;;;;5010312;28;20470;-70
2024/01/15 00:20:45;;;;;;;26.40;25.20;;;0.80;99.90;;;;;;5002715;28;20508;-70
2024/01/15 00:23:13;;;;;;;26.37;25.20;;;0.80;99.90;;;;;;5004312;28;20482;-69
2024/01/15 00:25:42;;;;;;;25.37;24.27;;;0.80;99.90;;;;;;5016425;28;20457;-70
2024/01/15 00:28:09;;;;;;;25.00;23.90;;;0.80;99.90;;;;;;5009757;28;20461;-70
2024/01/15 00:30:36;;;;;;;26.33;25.23;;;0.80;99.90;;;;;;5006881;28;20462;-70
2024/01/15 00:33:03;;;;;;;26.10;25.00;;;0.90;99.90;;;;;;5008097;28;20943;-70
2024/01/15 00:35:30;;;;;;;25.50;24.40;;;0.90;99.90;;;;;;5009554;28;20458;-69
2024/01/15 00:37:57;;;;;;;25.00;24.00;;;0.80;99.90;;;;;;5008871;28;20877;-69
2024/01/15 00:40:26;;;;;;;25.13;24.13;;;0.90;99.90;;;;;;5005805;28;20839;-70
2024/01/15 00:42:53;;;;;;;25.93;24.83;;;0.80;99.90;;;;;;5006199;28;20504;-70
2024/01/15 00:45:20;;;;;;;25.80;24.70;;;0.90;99.90;;;;;;5005676;28;20466;-69
2024/01/15 00:47:48;;;;;;;26.33;25.23;;;0.90;99.90;;;;;;5001807;28;20489;-70
2024/01/15 00:50:15;;;;;;;27.10;25.90;;;0.90;99.90;;;;;;5008957;28;20465;-70
2024/01/15 00:52:42;;;;;;;27.77;26.57;;;0.90;99.90;;;;;;4999603;28;20502;-69
2024/01/15 00:55:09;;;;;;;27.57;26.37;;;0.90;99.90;;;;;;4999066;28;20469;-69
2024/01/15 00:57:37;;;;;;;28.70;27.40;;;0.90;99.90;;;;;;5006895;28;20799;-69
2024/01/15 01:00:06;;;;;;;28.30;27.00;;;0.80;99.90;;;;;;5007579;28;20856;-69
2024/01/15 01:02:33;;;;;;;27.63;26.40;;;0.80;99.90;;;;;;5003483;28;20471;-70
2024/01/15 01:05:00;;;;;;;27.00;25.80;;;0.80;99.90;;;;;;5005336;28;20539;-69
2024/01/15 01:07:27;;;;;;;25.70;24.60;;;0.80;99.90;;;;;;5011441;28;20895;-69
2024/01/15 01:09:54;;;;;;;26.57;25.37;;;0.80;99.90;;;;;;5001815;28;20892;-69
2024/01/15 01:12:21;;;;;;;25.10;24.00;;;0.90;99.90;;;;;;5004178;28;20457;-69
2024/01/15 01:14:49;;;;;;;25.13;24.03;;;0.90;99.90;;;;;;5008644;28;20525;-69
2024/01/15 01:17:16;;;;;;;26.23;25.03;;;0.90;99.90;;;;;;5008094;28;20869;-69
2024/01/15 01:19:43;;;;;;;25.90;24.80;;;0.80;99.90;;;;;;5008517;28;20454;-69
2024/01/15 01:22:10;;;;;;;26.70;25.50;;;0.90;99.90;;;;;;4999098;28;20478;-69
2024/01/15 01:24:36;;;;;;;28.07;26.77;;;0.90;99.90;;;;;;5003092;28;20490;-69
2024/01/15 01:27:04;;;;;;;27.77;26.47;;;1.00;99.90;;;;;;5008302;28;20512;-69
2024/01/15 01:29:31;;;;;;;28.17;26.80;;;1.00;99.90;;;;;;5016948;28;20532;-69
2024/01/15 01:32:00;;;;;;;29.73;28.23;;;1.00;99.90;;;;;;5007979;28;20883;-69
2024/01/15 01:34:26;;;;;;;28.03;26.63;;;1.00;99.90;;;;;;4998872;28;20473;-69
2024/01/15 01:36:53;;;;;;;28.10;26.70;;;1.00;99.90;;;;;;5007602;28;20454;-69
2024/01/15 01:39:20;;;;;;;27.20;25.90;;;1.00;99.90;;;;;;5000583;28;20474;-69
2024/01/15 01:41:47;;;;;;;27.10;25.80;;;0.90;99.90;;;;;;5001369;28;20476;-69
2024/01/15 01:44:14;;;;;;;27.80;26.43;;;0.90;99.90;;;;;;5007465;28;20501;-69
2024/01/15 01:46:41;;;;;;;26.97;25.67;;;1.00;99.90;;;;;;5010069;28;20543;-69
2024/01/15 01:49:10;;;;;;;26.30;25.10;;;1.00;99.90;;;;;;5000418;28;20469;-70
2024/01/15 01:51:39;;;;;;;28.30;27.00;;;1.00;99.90;;;;;;5004897;28;20516;-69
2024/01/15 01:54:07;;;;;;;27.53;26.23;;;1.00;99.90;;;;;;5001414;28;20466;-70
2024/01/15 01:56:35;;;;;;;27.60;26.30;;;1.00;99.90;;;;;;5004376;28;20466;-70
2024/01/15 01:59:03;;;;;;;24.93;23.83;;;1.00;99.90;;;;;;5005623;28;20532;-70
2024/01/15 02:01:30;;;;;;;25.30;24.20;;;1.00;99.90;;;;;;5007247;28;20459;-70
2024/01/15 02:03:57;;;;;;;24.80;23.70;;;1.00;99.90;;;;;;5001728;28;21011;-69
2024/01/15 02:06:25;;;;;;;25.20;24.10;;;1.00;99.90;;;;;;5000825;28;20473;-69
2024/01/15 02:08:53;;;;;;;24.70;23.60;;;1.00;99.90;;;;;;5007241;28;20465;-69
2024/01/15 02:11:19;;;;;;;23.63;22.60;;;1.00;99.90;;;;;;5014677;28;20964;-69
2024/01/15 02:13:47;;;;;;;25.07;23.97;;;1.00;99.90;;;;;;4991756;28;20499;-69
2024/01/15 02:16:14;;;;;;;25.40;24.20;;;1.00;99.90;;;;;;5007687;28;20527;-68
2024/01/15 02:18:42;;;;;;;25.80;24.60;;;1.10;99.90;;;;;;5006692;28;20474;-69
2024/01/15 02:21:09;;;;;;;26.27;25.07;;;1.10;99.90;;;;;;5003925;28;20466;-69
2024/01/15 02:23:37;;;;;;;26.40;25.30;;;1.00;99.90;;;;;;4999401;28;20490;-69
2024/01/15 02:26:06;;;;;;;25.47;24.37;;;1.10;99.90;;;;;;5014226;28;20837;-69
2024/01/15 02:28:34;;;;;;;25.00;24.00;;;1.10;99.90;;;;;;5008574;28;20470;-69
2024/01/15 02:31:01;;;;;;;24.57;23.57;;;1.10;99.90;;;;;;5007971;28;20848;-69
2024/01/15 02:33:27;;;;;;;23.47;22.53;;;1.00;99.90;;;;;;5005684;28;22112;-69
2024/01/15 02:35:54;;;;;;;22.63;21.73;;;1.00;99.90;;;;;;5004345;28;20463;-69
2024/01/15 02:38:21;;;;;;;23.10;22.10;;;1.00;99.90;;;;;;4998698;28;21005;-69
2024/01/15 02:40:50;;;;;;;22.60;21.63;;;1.00;99.90;;;;;;4995093;28;20494;-69
2024/01/15 02:43:18;;;;;;;22.23;21.33;;;1.00;99.90;;;;;;5010980;28;20465;-69
2024/01/15 02:45:46;;;;;;;21.80;20.90;;;1.00;99.90;;;;;;5005585;28;20531;-69
2024/01/15 02:48:13;;;;;;;21.20;20.40;;;1.00;99.90;;;;;;5001012;28;21100;-69
2024/01/15 02:50:41;;;;;;;20.60;19.80;;;1.00;99.90;;;;;;5001754;28;21056;-69
2024/01/15 02:53:07;;;;;;;20.90;20.00;;;1.00;99.90;;;;;;5004001;28;20814;-69
2024/01/15 02:55:34;;;;;;;21.70;20.80;;;1.00;99.90;;;;;;4998190;28;20771;-69
2024/01/15 02:58:03;;;;;;;22.33;21.40;;;1.00;99.90;;;;;;4998829;28;20541;-69
2024/01/15 03:00:30;;;;;;;22.77;21.77;;;1.00;99.90;;;;;;5004367;28;20447;-69
2024/01/15 03:02:57;;;;;;;21.83;20.93;;;1.00;99.90;;;;;;5005628;28;20466;-69
2024/01/15 03:05:24;;;;;;;21.83;20.93;;;1.00;99.90;;;;;;5001787;28;20489;-69
2024/01/15 03:07:51;;;;;;;21.53;20.63;;;1.10;99.90;;;;;;5000266;28;20470;-69
2024/01/15 03:10:17;;;;;;;22.17;21.20;;;1.10;99.90;;;;;;5011926;28;20462;-69
2024/01/15 03:12:44;;;;;;;21.10;20.20;;;1.10;99.90;;;;;;5000622;28;20465;-69
2024/01/15 03:15:13;;;;;;;20.80;19.90;;;1.10;99.90;;;;;;5004832;28;20887;-69
2024/01/15 03:17:41;;;;;;;20.40;19.60;;;1.00;99.90;;;;;;5001039;28;20830;-69
2024/01/15 03:20:09;;;;;;;20.30;19.50;;;1.00;99.90;;;;;;5008121;28;20946;-70
2024/01/15 03:22:36;;;;;;;20.40;19.60;;;1.10;99.90;;;;;;5009919;28;20462;-70
2024/01/15 03:25:03;;;;;;;21.10;20.20;;;1.10;99.90;;;;;;5005722;28;21062;-69
2024/01/15 03:27:30;;;;;;;21.40;20.50;;;1.10;99.90;;;;;;5018273;28;20461;-69
2024/01/15 03:29:57;;;;;;;21.23;20.33;;;1.10;99.90;;;;;;5009956;28;20464;-69
2024/01/15 03:32:25;;;;;;;21.07;20.17;;;1.10;99.90;;;;;;5006168;28;20474;-70
2024/01/15 03:34:52;;;;;;;20.83;19.93;;;1.10;99.90;;;;;;5009722;28;20485;-70
2024/01/15 03:37:19;;;;;;;20.80;19.90;;;1.10;99.90;;;;;;5010234;28;20470;-70
2024/01/15 03:39:46;;;;;;;22.00;21.00;;;1.10;99.90;;;;;;5010665;28;20472;-70
2024/01/15 03:42:14;;;;;;;21.57;20.67;;;1.10;99.90;;;;;;5007398;28;20477;-70
2024/01/15 03:44:41;;;;;;;21.20;20.30;;;1.20;99.90;;;;;;5002617;28;21210;-70
2024/01/15 03:47:07;;;;;;;20.87;19.97;;;1.10;99.90;;;;;;5002176;28;20482;-70
2024/01/15 03:49:35;;;;;;;21.27;20.37;;;1.10;99.90;;;;;;5009009;28;20458;-70
2024/01/15 03:52:02;;;;;;;21.10;20.20;;;1.10;99.90;;;;;;5004219;28;20468;-70
2024/01/15 03:54:30;;;;;;;21.30;20.40;;;1.00;99.90;;;;;;5010599;28;20565;-70
2024/01/15 03:56:56;;;;;;;21.50;20.60;;;1.00;99.90;;;;;;5013473;28;20477;-70
2024/01/15 03:59:23;;;;;;;20.67;19.77;;;1.00;99.90;;;;;;5007978;28;20470;-71
2024/01/15 04:01:50;;;;;;;21.07;20.17;;;1.00;99.90;;;;;;5000628;28;20469;-70
2024/01/15 04:04:18;;;;;;;21.60;20.70;;;1.00;99.90;;;;;;5013531;28;20915;-70
2024/01/15 04:06:46;;;;;;;21.10;20.20;;;1.10;99.90;;;;;;5016107;28;20571;-70
2024/01/15 04:09:13;;;;;;;20.20;19.40;;;1.10;99.90;;;;;;5009005;28;20972;-70
2024/01/15 04:11:41;;;;;;;21.10;20.20;;;1.10;99.90;;;;;;5000558;28;20833;-70
2024/01/15 04:14:08;;;;;;;19.67;18.87;;;1.10;99.90;;;;;;5007545;28;20684;-70
2024/01/15 04:16:35;;;;;;;19.80;19.00;;;1.10;99.90;;;;;;5005779;28;20520;-70
2024/01/15 04:19:02;;;;;;;19.33;18.53;;;1.20;99.90;;;;;;5006670;28;20447;-70
2024/01/15 04:21:29;;;;;;;20.30;19.40;;;1.20;99.90;;;;;;5015614;28;20466;-70
2024/01/15 04:23:57;;;;;;;19.97;19.17;;;1.20;99.90;;;;;;5002207;28;20485;-70
2024/01/15 04:26:24;;;;;;;19.40;18.60;;;1.10;99.90;;;;;;5013542;28;20892;-70
2024/01/15 04:28:51;;;;;;;19.27;18.47;;;1.20;99.90;;;;;;5002109;28;20465;-70
2024/01/15 04:31:26;;;;;;;19.90;19.10;;;1.20;99.90;;;;;;5001600;28;20462;-70
2024/01/15 04:33:53;;;;;;;19.97;19.17;;;1.10;99.90;;;;;;5008898;28;20454;-70
2024/01/15 04:36:20;;;;;;;20.30;19.40;;;1.10;99.90;;;;;;5006904;28;21987;-70
2024/01/15 04:38:47;;;;;;;20.90;20.00;;;1.10;99.90;;;;;;5008721;28;20462;-70
2024/01/15 04:41:16;;;;;;;19.83;19.03;;;1.10;99.90;;;;;;5003893;28;21222;-70
2024/01/15 04:43:43;;;;;;;19.70;18.90;;;1.10;99.90;;;;;;4998956;28;20465;-70
2024/01/15 04:46:10;;;;;;;19.83;19.03;;;1.10;99.90;;;;;;5008149;28;20474;-70
2024/01/15 04:48:37;;;;;;;18.70;18.00;;;1.10;99.90;;;;;;5006821;28;20462;-70
2024/01/15 04:51:06;;;;;;;19.40;18.60;;;1.10;99.90;;;;;;5007802;28;20489;-70
2024/01/15 04:53:34;;;;;;;18.73;17.93;;;1.10;99.90;;;;;;5005334;28;20501;-70
2024/01/15 04:56:00;;;;;;;19.07;18.27;;;1.20;99.90;;;;;;5002200;28;20475;-70
2024/01/15 04:58:29;;;;;;;19.60;18.80;;;1.20;99.90;;;;;;5006657;28;20497;-70
2024/01/15 05:00:55;;;;;;;21.60;20.60;;;1.20;99.90;;;;;;5006574;28;20466;-70
2024/01/15 05:03:23;;;;;;;20.80;19.83;;;1.20;99.90;;;;;;5001773;28;20953;-70
2024/01/15 05:05:50;;;;;;;21.60;20.60;;;1.20;99.90;;;;;;5004307;28;20493;-70
2024/01/15 05:08:17;;;;;;;20.57;19.67;;;1.20;99.90;;;;;;5012342;28;20807;-70
2024/01/15 05:10:44;;;;;;;21.07;20.07;;;1.20;99.90;;;;;;5006512;28;20504;-70
2024/01/15 05:13:11;;;;;;;21.37;20.37;;;1.20;99.90;;;;;;5004162;28;20458;-70
2024/01/15 05:15:39;;;;;;;21.80;20.80;;;1.10;99.90;;;;;;5002406;28;20463;-70
2024/01/15 05:18:06;;;;;;;22.10;21.10;;;1.10;99.90;;;;;;5002846;28;20474;-71
2024/01/15 05:20:33;;;;;;;21.20;20.20;;;1.00;99.90;;;;;;5016760;28;21112;-70
2024/01/15 05:23:01;;;;;;;20.90;19.93;;;1.00;99.90;;;;;;5001160;28;20660;-70
2024/01/15 05:25:28;;;;;;;21.60;20.60;;;1.00;99.90;;;;;;5004503;28;20967;-70
2024/01/15 05:27:54;;;;;;;21.40;20.40;;;1.00;99.90;;;;;;5008083;28;20508;-71
2024/01/15 05:30:22;;;;;;;21.37;20.37;;;1.10;99.90;;;;;;5013843;28;20469;-70
2024/01/15 05:32:50;;;;;;;21.60;20.60;;;1.10;99.90;;;;;;5000373;28;20466;-70
2024/01/15 05:35:18;;;;;;;20.80;19.80;;;1.10;99.90;;;;;;5001214;28;20994;-70
2024/01/15 05:37:46;;;;;;;21.40;20.40;;;1.20;99.90;;;;;;5007979;28;20908;-70
2024/01/15 05:40:13;;;;;;;21.10;20.10;;;1.20;99.90;;;;;;5007144;28;20964;-70
2024/01/15 05:42:40;;;;;;;21.10;20.10;;;1.20;99.90;;;;;;5007294;28;20544;-70
2024/01/15 05:45:08;;;;;;;20.23;19.33;;;1.20;99.90;;;;;;5011473;28;20525;-70
2024/01/15 05:47:35;;;;;;;20.80;19.80;;;1.20;99.90;;;;;;4999038;28;20856;-70
2024/01/15 05:50:04;;;;;;;20.30;19.40;;;1.20;99.90;;;;;;4999148;28;20474;-70
2024/01/15 05:52:32;;;;;;;20.10;19.20;;;1.20;99.90;;;;;;5002464;28;20919;-70
2024/01/15 05:54:59;;;;;;;19.90;19.00;;;1.20;99.90;;;;;;5004947;28;20835;-70
2024/01/15 05:57:26;;;;;;;20.10;19.20;;;1.30;99.90;;;;;;5000912;28;20450;-70
2024/01/15 05:59:53;;;;;;;20.40;19.50;;;1.30;99.90;;;;;;5003174;28;20522;-70
2024/01/15 06:02:20;;;;;;;20.57;19.57;;;1.20;99.90;;;;;;5000854;28;20471;-70
2024/01/15 06:04:47;;;;;;;21.30;20.30;;;1.10;99.90;;;;;;5006044;28;21088;-69
2024/01/15 06:07:15;;;;;;;21.20;20.20;;;1.20;99.90;;;;;;5004465;28;20569;-70
2024/01/15 06:09:41;;;;;;;22.97;21.87;;;1.10;99.90;;;;;;5007261;28;20469;-70
2024/01/15 06:12:09;;;;;;;22.30;21.20;;;1.10;99.90;;;;;;5009044;28;20467;-70
2024/01/15 06:14:36;;;;;;;21.90;20.90;;;1.10;99.90;;;;;;5000617;28;20489;-70
2024/01/15 06:17:03;;;;;;;22.20;21.13;;;1.10;99.90;;;;;;5002446;28;20511;-70
2024/01/15 06:19:31;;;;;;;21.80;20.80;;;1.10;99.90;;;;;;4999614;28;20462;-70
2024/01/15 06:21:58;;;;;;;22.30;21.30;;;1.10;99.90;;;;;;5006353;28;20987;-70
2024/01/15 06:24:26;;;;;;;21.00;20.10;;;1.10;99.90;;;;;;5000055;28;20975;-70
2024/01/15 06:26:53;;;;;;;21.60;20.60;;;1.00;99.90;;;;;;4999369;28;20462;-71
2024/01/15 06:29:20;;;;;;;21.23;20.23;;;1.10;99.90;;;;;;5006599;28;20864;-71
2024/01/15 06:31:47;;;;;;;21.53;20.53;;;1.10;99.90;;;;;;5012244;28;20922;-70
2024/01/15 06:34:14;;;;;;;21.60;20.60;;;1.10;99.90;;;;;;5011187;28;20458;-70
2024/01/15 06:36:40;;;;;;;21.83;20.83;;;1.10;99.90;;;;;;4996923;28;20968;-71
2024/01/15 06:39:08;;;;;;;22.27;21.17;;;1.10;99.90;;;;;;5006142;28;20463;-71
2024/01/15 06:41:41;;;;;;;22.40;21.40;;;1.20;99.90;;;;;;5006906;28;20462;-70
2024/01/15 06:44:08;;;;;;;22.17;21.17;;;1.20;99.90;;;;;;4999763;28;20470;-71
2024/01/15 06:46:36;;;;;;;22.80;21.70;;;1.20;99.90;;;;;;5001143;28;20502;-71
2024/01/15 06:49:02;;;;;;;23.20;22.10;;;1.20;99.90;;;;;;5005836;28;20454;-71
2024/01/15 06:51:30;;;;;;;21.80;20.80;;;1.20;99.90;;;;;;5009576;28;20554;-71
2024/01/15 06:53:57;;;;;;;22.90;21.80;;;1.20;99.90;;;;;;5005689;28;20515;-71
2024/01/15 06:56:24;;;;;;;23.10;22.00;;;1.20;99.90;;;;;;5006772;28;20479;-71
2024/01/15 06:58:52;;;;;;;22.70;21.60;;;1.20;99.90;;;;;;5001182;28;20465;-71
2024/01/15 07:01:19;;;;;;;22.80;21.70;;;1.20;99.90;;;;;;4998752;28;20472;-72
2024/01/15 07:03:46;;;;;;;23.90;22.70;;;1.20;99.90;;;;;;5000803;28;20469;-71
2024/01/15 07:06:13;;;;;;;23.13;21.93;;;1.10;99.90;;;;;;4999753;28;20498;-72
2024/01/15 07:08:41;;;;;;;23.50;22.30;;;1.10;99.90;;;;;;5007061;28;20464;-71
2024/01/15 07:11:08;;;;;;;22.60;21.50;;;1.10;99.90;;;;;;5000069;28;20450;-71
2024/01/15 07:13:37;;;;;;;22.70;21.60;;;1.20;99.90;;;;;;5006648;28;20486;-71
2024/01/15 07:16:05;;;;;;;23.03;21.93;;;1.20;99.90;;;;;;5000264;28;20468;-71
2024/01/15 07:18:32;;;;;;;22.70;21.60;;;1.20;99.90;;;;;;5005983;28;20801;-71
2024/01/15 07:21:01;;;;;;;23.13;22.00;;;1.20;99.90;;;;;;4996135;28;20524;-71
2024/01/15 07:23:27;;;;;;;22.20;21.10;;;1.10;99.90;;;;;;4998214;28;20484;-71
2024/01/15 07:25:54;;;;;;;23.30;22.10;;;1.10;99.90;;;;;;4994615;28;20886;-71
2024/01/15 07:28:21;;;;;;;23.20;22.00;;;1.10;99.90;;;;;;4993344;28;20478;-72
2024/01/15 07:30:48;;;;;;;23.30;22.10;;;1.10;99.90;;;;;;4997996;28;20475;-72
2024/01/15 07:33:16;;;;;;;23.30;22.10;;;1.10;99.90;;;;;;4990271;28;20474;-71
2024/01/15 07:35:43;;;;;;;22.60;21.50;;;1.10;99.90;;;;;;4997498;28;20469;-71
2024/01/15 07:38:11;;;;;;;22.10;21.00;;;1.20;99.90;;;;;;4996044;28;20485;-71
2024/01/15 07:40:39;;;;;;;22.80;21.70;;;1.20;99.90;;;;;;4995489;28;20462;-71
2024/01/15 07:43:05;;;;;;;22.00;20.90;;;1.20;99.90;;;;;;4996281;28;20568;-71
2024/01/15 07:45:32;;;;;;;22.13;21.03;;;1.20;99.90;;;;;;4994879;28;20815;-71
2024/01/15 07:47:59;;;;;;;22.00;20.90;;;1.20;99.90;;;;;;4994487;28;20562;-71
2024/01/15 07:50:27;;;;;;;22.10;21.00;;;1.20;99.90;;;;;;4996207;28;20474;-71
2024/01/15 07:52:54;;;;;;;22.90;21.70;;;1.20;99.90;;;;;;4994394;28;21014;-71
2024/01/15 07:55:21;;;;;;;22.80;21.70;;;1.20;99.90;;;;;;4996770;28;20470;-72
2024/01/15 07:57:49;;;;;;;22.87;21.77;;;1.20;99.90;;;;;;4998230;28;20473;-71
2024/01/15 08:00:16;;;;;;;22.60;21.50;;;1.10;99.90;;;;;;4994978;28;20482;-73
2024/01/15 08:02:43;;;;;;;23.63;22.43;;;1.10;99.90;;;;;;4997095;28;20657;-72
2024/01/15 08:05:10;;;;;;;24.40;23.00;;;1.10;99.90;;;;;;4997852;28;20482;-72
2024/01/15 08:07:38;;;;;;;25.10;23.70;;;1.00;99.90;;;;;;4995523;28;20784;-72
2024/01/15 08:10:05;;;;;;;25.33;23.93;;;1.00;99.90;;;;;;4998781;28;20464;-72
2024/01/15 08:12:32;;;;;;;25.20;23.80;;;1.00;99.90;;;;;;4998912;28;20474;-72
2024/01/15 08:14:59;;;;;;;25.10;23.70;;;1.00;99.90;;;;;;4994047;28;20605;-72
2024/01/15 08:17:28;;;;;;;24.23;22.93;;;1.00;99.90;;;;;;5000468;28;20678;-73
2024/01/15 08:19:55;;;;;;;23.87;22.57;;;1.00;99.90;;;;;;4996173;28;20470;-72
2024/01/15 08:22:22;;;;;;;23.87;22.57;;;1.00;99.90;;;;;;4996948;28;20469;-73
2024/01/15 08:24:50;;;;;;;23.07;21.87;;;1.00;99.90;;;;;;5000058;28;20844;-73
2024/01/15 08:27:17;;;;;;;23.67;22.47;;;1.10;99.90;;;;;;5000061;28;21262;-73
2024/01/15 08:29:44;;;;;;;24.27;23.00;;;1.10;99.90;;;;;;4998247;28;20983;-73
2024/01/15 08:32:13;;;;;;;23.70;22.50;;;1.00;99.90;;;;;;4997672;28;20560;-74
2024/01/15 08:34:41;;;;;;;23.77;22.47;;;1.10;99.90;;;;;;5000971;28;20976;-74
2024/01/15 08:37:09;;;;;;;24.60;23.30;;;1.00;99.90;;;;;;4997894;28;20470;-74
2024/01/15 08:39:38;;;;;;;23.77;22.57;;;1.00;99.90;;;;;;4999804;28;20470;-73
2024/01/15 08:42:06;;;;;;;24.03;22.83;;;1.00;99.90;;;;;;5001121;28;20554;-74
2024/01/15 08:44:33;;;;;;;23.53;22.33;;;0.90;99.90;;;;;;4995422;28;20467;-74
2024/01/15 08:47:00;;;;;;;24.17;22.87;;;0.90;99.90;;;;;;4996363;28;20534;-75
2024/01/15 08:49:27;;;;;;;23.97;22.77;;;1.00;99.90;;;;;;5000237;28;20466;-74
2024/01/15 08:51:54;;;;;;;24.87;23.57;;;1.00;99.90;;;;;;4996405;28;20517;-73
2024/01/15 08:54:21;;;;;;;23.57;22.37;;;1.00;99.90;;;;;;4999545;28;20467;-73
2024/01/15 08:56:47;;;;;;;24.20;23.00;;;1.00;99.90;;;;;;4998930;28;20466;-74
2024/01/15 08:59:16;;;;;;;24.10;22.90;;;1.00;99.90;;;;;;4998370;28;20470;-74
2024/01/15 09:01:44;;;;;;;23.20;22.00;;;1.00;99.90;;;;;;5000481;28;20458;-74
2024/01/15 09:04:11;;;;;;;23.67;22.47;;;0.90;99.90;;;;;;4995604;28;20980;-73
2024/01/15 09:06:37;;;;;;;24.47;23.13;;;0.90;99.90;;;;;;4995322;28;20508;-74
2024/01/15 09:09:04;;;;;;;26.33;24.63;;;0.90;99.90;;;;;;5000547;28;20467;-73
2024/01/15 09:11:31;;;;;;;27.33;25.53;;;0.80;99.90;;;;;;5001319;28;20459;-73
2024/01/15 09:13:58;;;;;;;25.97;24.27;;;0.80;99.90;;;;;;4996759;28;21026;-73
2024/01/15 09:16:26;;;;;;;26.30;24.60;;;0.80;99.90;;;;;;4997628;28;20498;-72
2024/01/15 09:18:56;;;;;;;27.77;25.97;;;0.80;99.90;;;;;;4997847;28;20467;-74
2024/01/15 09:21:24;;;;;;;27.23;25.43;;;0.80;99.90;;;;;;4992451;28;20560;-74
2024/01/15 09:23:51;;;;;;;28.30;26.40;;;0.80;99.90;;;;;;4998820;28;20461;-73
2024/01/15 09:26:18;;;;;;;29.00;27.10;;;0.90;99.90;;;;;;4997143;28;20501;-73
2024/01/15 09:28:44;;;;;;;29.27;27.27;;;0.90;99.90;;;;;;4995920;28;20694;-74
2024/01/15 09:31:11;;;;;;;28.97;26.97;;;0.90;99.90;;;;;;4995779;28;20814;-74
2024/01/15 09:33:40;;;;;;;28.53;26.63;;;1.00;99.90;;;;;;4993943;28;20468;-73
2024/01/15 09:36:08;;;;;;;29.93;27.83;;;1.00;99.90;;;;;;4993004;28;20966;-74
2024/01/15 09:38:34;;;;;;;30.40;28.30;;;1.00;99.90;;;;;;4994795;28;20494;-74
2024/01/15 09:41:01;;;;;;;30.10;28.00;;;1.00;99.90;;;;;;4993640;28;20470;-73
2024/01/15 09:43:28;;;;;;;30.17;28.07;;;0.90;99.90;;;;;;4993076;28;20467;-74
2024/01/15 09:45:55;;;;;;;30.47;28.37;;;1.00;99.90;;;;;;4995305;28;20892;-73
2024/01/15 09:48:22;;;;;;;30.57;28.37;;;1.00;99.90;;;;;;4997555;28;20715;-74
2024/01/15 09:50:51;;;;;;;30.70;28.50;;;1.00;99.90;;;;;;4988891;28;20497;-74
2024/01/15 09:53:20;;;;;;;30.47;28.27;;;1.00;99.90;;;;;;4991973;28;20885;-74
2024/01/15 09:55:50;;;;;;;29.80;27.60;;;1.00;99.90;;;;;;4992205;28;20701;-74
2024/01/15 09:58:18;;;;;;;30.27;28.17;;;1.10;99.90;;;;;;4994665;28;20884;-73
2024/01/15 10:00:45;;;;;;;30.77;28.57;;;1.10;99.90;;;;;;4994865;28;20466;-75
2024/01/15 10:03:13;;;;;;;30.97;28.77;;;1.00;99.90;;;;;;4991695;28;21368;-74
2024/01/15 10:05:40;;;;;;;31.50;29.20;;;1.00;99.90;;;;;;4997543;28;20495;-74
2024/01/15 10:08:08;;;;;;;30.57;28.37;;;1.00;99.90;;;;;;4994799;28;20849;-74
2024/01/15 10:10:37;;;;;;;30.10;27.90;;;1.00;99.90;;;;;;4993225;28;20970;-74
2024/01/15 10:13:06;;;;;;;31.70;29.50;;;1.00;99.90;;;;;;4992813;28;20996;-74
2024/01/15 10:15:36;;;;;;;32.80;30.50;;;1.00;99.90;;;;;;4996271;28;20477;-74
2024/01/15 10:18:03;;;;;;;30.40;28.30;;;1.00;99.90;;;;;;4996417;28;20467;-75
2024/01/15 10:20:32;;;;;;;26.63;24.93;;;0.80;99.90;;;;;;4992274;28;20473;-74
2024/01/15 10:23:00;;;;;;;27.80;25.90;;;0.70;99.90;;;;;;4992296;28;20501;-75
2024/01/15 10:25:28;;;;;;;28.27;26.37;;;0.70;99.90;;;;;;4991015;28;20635;-74
2024/01/15 10:28:02;;;;;;;30.43;28.33;;;0.70;99.90;;;;;;4995459;28;20459;-74
2024/01/15 10:30:29;;;;;;;30.80;28.70;;;0.80;99.90;;;;;;4993419;28;20470;-74
2024/01/15 10:33:01;;;;;;;31.10;29.00;;;0.90;99.90;;;;;;4992799;28;20472;-75
2024/01/15 10:35:29;;;;;;;31.37;29.17;;;1.00;99.90;;;;;;4991770;28;20756;-74
2024/01/15 10:37:56;;;;;;;32.60;30.40;;;1.00;99.90;;;;;;4995355;28;20466;-74
2024/01/15 10:40:23;;;;;;;34.90;32.50;;;1.10;99.90;;;;;;4995536;28;20518;-73
2024/01/15 10:42:52;;;;;;;32.33;30.03;;;1.10;99.90;;;;;;4989147;28;20463;-73
2024/01/15 10:45:19;;;;;;;31.10;28.90;;;1.10;99.90;;;;;;4994779;28;20467;-74
2024/01/15 10:47:46;;;;;;;32.83;30.53;;;1.10;99.90;;;;;;4991574;28;20505;-75
2024/01/15 10:50:13;;;;;;;35.07;32.57;;;1.20;99.90;;;;;;4994451;28;21708;-74
2024/01/15 10:52:42;;;;;;;34.63;32.13;;;1.20;99.90;;;;;;4992169;28;20981;-74
2024/01/15 10:55:10;;;;;;;34.60;32.20;;;1.30;99.90;;;;;;4996096;28;20555;-74
2024/01/15 10:57:39;;;;;;;35.30;32.80;;;1.30;99.90;;;;;;4990671;28;20465;-74
2024/01/15 11:00:12;;;;;;;37.80;35.10;;;1.40;99.90;;;;;;4995975;28;20476;-74
2024/01/15 11:02:39;;;;;;;33.60;31.20;;;1.30;99.90;;;;;;4994078;28;20501;-74
2024/01/15 11:05:07;;;;;;;34.37;31.97;;;1.40;99.90;;;;;;4993588;28;20485;-73
2024/01/15 11:07:34;;;;;;;36.17;33.67;;;1.40;99.90;;;;;;4992682;28;20525;-73
2024/01/15 11:10:03;;;;;;;36.10;33.70;;;1.30;99.90;;;;;;4994002;28;20475;-73
2024/01/15 11:12:32;;;;;;;35.10;32.80;;;1.40;99.90;;;;;;4992363;28;20466;-72
2024/01/15 11:15:05;;;;;;;33.43;31.23;;;1.40;99.90;;;;;;4993232;28;20577;-73
2024/01/15 11:18:00;;;;;;;31.60;29.60;;;1.30;99.90;;;;;;4988469;28;20569;-72
2024/01/15 11:20:27;;;;;;;32.27;30.37;;;1.30;99.90;;;;;;4996277;28;20507;-73
2024/01/15 11:22:57;;;;;;;31.90;30.00;;;1.30;99.90;;;;;;4994354;28;20462;-73
2024/01/15 11:25:23;;;;;;;30.50;28.70;;;1.40;99.90;;;;;;4992926;28;20550;-73
2024/01/15 11:27:52;;;;;;;28.63;26.93;;;1.40;99.90;;;;;;4991470;28;20517;-73
2024/01/15 11:30:20;;;;;;;27.77;26.17;;;1.30;99.90;;;;;;4992841;28;20521;-73
2024/01/15 11:32:49;;;;;;;28.30;26.70;;;1.30;99.90;;;;;;4992582;28;20474;-73
2024/01/15 11:35:16;;;;;;;27.30;25.80;;;1.30;99.90;;;;;;4988595;28;21248;-73
2024/01/15 11:37:59;;;;;;;27.20;25.70;;;1.30;99.90;;;;;;4994618;28;20471;-73
2024/01/15 11:40:39;;;;;;;26.17;24.77;;;1.30;99.90;;;;;;4998459;28;20545;-73
2024/01/15 11:43:06;;;;;;;26.77;25.37;;;1.30;99.90;;;;;;4994045;28;21123;-73
2024/01/15 11:45:34;;;;;;;25.90;24.50;;;1.30;99.90;;;;;;4994130;28;20478;-72
2024/01/15 11:48:15;;;;;;;24.67;23.27;;;1.40;99.90;;;;;;4994376;28;20489;-73
2024/01/15 11:50:42;;;;;;;24.47;23.07;;;1.70;99.90;;;;;;4995880;28;20471;-72
2024/01/15 11:53:18;;;;;;;24.10;22.70;;;2.10;99.90;;;;;;4995509;28;20466;-73
2024/01/15 11:55:48;;;;;;;23.20;21.90;;;2.50;99.90;;;;;;4993667;28;20510;-73
2024/01/15 11:58:17;;;;;;;22.57;21.37;;;2.40;99.90;;;;;;4997828;28;20979;-73
2024/01/15 12:00:45;;;;;;;22.70;21.40;;;2.50;99.90;;;;;;4997477;28;20474;-73
2024/01/15 12:03:13;;;;;;;22.50;21.20;;;2.60;99.90;;;;;;4994236;28;20553;-73
2024/01/15 12:05:41;;;;;;;21.60;20.40;;;2.50;99.90;;;;;;4998094;28;20494;-72
2024/01/15 12:08:10;;;;;;;22.70;21.50;;;2.30;99.90;;;;;;4997310;28;20504;-72
2024/01/15 12:10:40;;;;;;;21.13;20.03;;;2.10;99.90;;;;;;4993013;28;20671;-72
2024/01/15 12:13:11;;;;;;;20.13;19.13;;;2.00;99.90;;;;;;4996093;28;20527;-72
2024/01/15 12:15:41;;;;;;;21.10;20.00;;;1.90;99.90;;;;;;4999173;28;20477;-73
2024/01/15 12:18:09;;;;;;;20.30;19.30;;;1.90;99.90;;;;;;4995828;28;20656;-72
2024/01/15 12:20:38;;;;;;;20.40;19.40;;;1.90;99.90;;;;;;4995638;28;20559;-73
2024/01/15 12:23:05;;;;;;;19.20;18.20;;;1.90;99.90;;;;;;4994939;28;20462;-73
2024/01/15 12:25:33;;;;;;;19.20;18.20;;;2.10;99.90;;;;;;4996944;28;20476;-72
2024/01/15 12:28:01;;;;;;;18.77;17.87;;;2.30;99.90;;;;;;4996051;28;21005;-73
2024/01/15 12:30:31;;;;;;;19.00;18.03;;;2.20;99.90;;;;;;4997859;28;20461;-73
2024/01/15 12:32:58;;;;;;;19.00;18.03;;;2.20;99.90;;;;;;4997439;28;20805;-73
2024/01/15 12:35:27;;;;;;;18.50;17.60;;;2.20;99.90;;;;;;4992318;28;20470;-73
2024/01/15 12:37:55;;;;;;;18.87;17.97;;;2.20;99.90;;;;;;4995326;28;20518;-74